Itaubal, Brazil
Current Conditions -  °F | °C
As of 10:00 PM on Friday 24 Oct 2014 (Local Time) from SBMQ Reporting Station
Few Clouds Few Clouds  
Wind Chill: 82°   Ceiling: Unl
Heat Index: 88°   Visibility: 6mi
Dew Point: 73°   Wind: 9mph
Humidity: 74%   Direction: 40°NE
Pressure: 29.83"   Gusts: NA
Location:  0.7°N, 50.77°W
Report Text: SBMQ 250100Z 04008KT 9999 FEW016 28/23 Q1010
Loading
Personal Weather Stations






























Interactive Weather Map
Tropical Storm Tracking
New forecast layout! Learn more

10-Day Weather Forecast

Advertisements
Track Severe Weather on mobile